createdAt,value
2022-12-09T00:00:08.467Z,6.90
2022-12-09T00:02:37.549Z,7.40
2022-12-09T00:05:06.677Z,7.70
2022-12-09T00:07:37.417Z,7.05
2022-12-09T00:10:06.941Z,7.70
2022-12-09T00:12:35.648Z,7.43
2022-12-09T00:15:04.662Z,7.43
2022-12-09T00:17:33.571Z,7.45
2022-12-09T00:20:02.016Z,7.28
2022-12-09T00:22:30.675Z,7.57
2022-12-09T00:24:59.436Z,7.95
2022-12-09T00:27:28.386Z,6.75
2022-12-09T00:29:56.888Z,7.15
2022-12-09T00:32:25.403Z,8.60
2022-12-09T00:34:53.920Z,8.68
2022-12-09T00:37:22.503Z,9.70
2022-12-09T00:39:50.940Z,10.23
2022-12-09T00:42:19.665Z,9.30
2022-12-09T00:44:48.259Z,11.32
2022-12-09T00:47:16.899Z,10.55
2022-12-09T00:49:45.374Z,12.45
2022-12-09T00:52:13.766Z,9.27
2022-12-09T00:54:42.303Z,10.25
2022-12-09T00:57:10.849Z,10.10
2022-12-09T00:59:39.544Z,8.85
2022-12-09T01:02:08.372Z,11.07
2022-12-09T01:04:37.234Z,10.73
2022-12-09T01:07:05.758Z,10.48
2022-12-09T01:09:35.873Z,9.65
2022-12-09T01:12:04.851Z,10.05
2022-12-09T01:14:33.522Z,8.30
2022-12-09T01:17:02.007Z,9.07
2022-12-09T01:19:30.970Z,9.35
2022-12-09T01:21:59.356Z,9.45
2022-12-09T01:24:28.133Z,11.00
2022-12-09T01:26:56.853Z,10.20
2022-12-09T01:29:25.301Z,10.40
2022-12-09T01:31:56.444Z,10.10
2022-12-09T01:34:24.887Z,9.75
2022-12-09T01:36:53.336Z,9.60
2022-12-09T01:39:21.826Z,11.05
2022-12-09T01:41:52.976Z,12.55
2022-12-09T01:44:26.071Z,12.63
2022-12-09T01:46:59.287Z,9.95
2022-12-09T01:49:36.761Z,9.32
2022-12-09T01:52:14.693Z,11.80
2022-12-09T01:54:46.913Z,13.32
2022-12-09T01:57:15.974Z,14.15
2022-12-09T01:59:46.116Z,15.50
2022-12-09T02:02:18.876Z,14.55
2022-12-09T02:04:49.215Z,12.77
2022-12-09T02:07:20.508Z,13.73
2022-12-09T02:09:54.150Z,13.73
2022-12-09T02:12:45.348Z,14.23
2022-12-09T02:15:25.222Z,15.82
2022-12-09T02:18:04.611Z,15.70
2022-12-09T02:20:42.294Z,13.75
2022-12-09T02:23:17.051Z,16.88
2022-12-09T02:25:50.528Z,16.73
2022-12-09T02:28:18.956Z,19.60
2022-12-09T02:31:16.213Z,19.52
2022-12-09T02:34:21.111Z,20.83
2022-12-09T02:37:14.506Z,19.02
2022-12-09T02:39:45.995Z,17.88
2022-12-09T02:42:19.900Z,20.27
2022-12-09T02:44:51.471Z,17.23
2022-12-09T02:47:28.267Z,15.53
2022-12-09T02:50:02.297Z,16.05
2022-12-09T02:52:33.109Z,16.60
2022-12-09T02:55:06.228Z,15.10
2022-12-09T02:57:37.833Z,15.37
2022-12-09T03:00:08.958Z,16.95
2022-12-09T03:02:45.396Z,14.48
2022-12-09T03:05:29.293Z,13.90
2022-12-09T03:08:36.341Z,12.45
2022-12-09T03:11:15.321Z,9.27
2022-12-09T03:13:57.673Z,8.97
2022-12-09T03:16:38.484Z,8.07
2022-12-09T03:19:36.231Z,6.13
2022-12-09T03:22:12.275Z,5.55
2022-12-09T03:25:17.771Z,5.10
2022-12-09T03:28:10.485Z,4.90
2022-12-09T03:30:42.619Z,5.20
2022-12-09T03:33:12.914Z,4.90
2022-12-09T03:35:54.271Z,4.40
2022-12-09T03:38:25.430Z,4.10
2022-12-09T03:41:17.239Z,3.70
2022-12-09T03:43:53.775Z,5.00
2022-12-09T03:46:23.919Z,4.67
2022-12-09T03:48:52.607Z,4.70
2022-12-09T03:51:37.548Z,5.13
2022-12-09T03:54:14.707Z,5.20
2022-12-09T03:56:46.978Z,4.53
2022-12-09T03:59:16.804Z,5.70
2022-12-09T04:01:47.317Z,4.83
2022-12-09T04:04:16.992Z,5.80
2022-12-09T04:06:45.724Z,5.33
2022-12-09T04:09:14.841Z,5.10
2022-12-09T04:11:43.580Z,6.20
2022-12-09T04:14:15.570Z,5.17
2022-12-09T04:16:45.571Z,5.83
2022-12-09T04:19:14.429Z,7.73
2022-12-09T04:21:42.833Z,8.47
2022-12-09T04:24:11.662Z,7.65
2022-12-09T04:26:40.133Z,7.20
2022-12-09T04:29:08.838Z,5.67
2022-12-09T04:31:37.377Z,6.80
2022-12-09T04:34:09.476Z,7.37
2022-12-09T04:36:38.901Z,7.17
2022-12-09T04:39:07.720Z,10.70
2022-12-09T04:41:37.531Z,10.00
2022-12-09T04:44:06.524Z,8.40
2022-12-09T04:46:35.409Z,6.97
2022-12-09T04:49:04.790Z,8.07
2022-12-09T04:51:39.171Z,8.93
2022-12-09T04:54:12.321Z,9.15
2022-12-09T04:56:41.646Z,8.05
2022-12-09T04:59:10.426Z,9.20
2022-12-09T05:01:39.252Z,7.83
2022-12-09T05:04:08.047Z,8.07
2022-12-09T05:06:36.786Z,9.60
2022-12-09T05:09:06.115Z,9.93
2022-12-09T05:11:34.820Z,10.13
2022-12-09T05:14:03.799Z,9.60
2022-12-09T05:16:32.410Z,11.93
2022-12-09T05:19:01.540Z,10.30
2022-12-09T05:21:30.869Z,11.67
2022-12-09T05:23:59.586Z,11.77
2022-12-09T05:26:28.295Z,10.20
2022-12-09T05:28:57.252Z,9.00
2022-12-09T05:31:26.262Z,9.90
2022-12-09T05:33:54.839Z,10.67
2022-12-09T05:36:28.488Z,10.70
2022-12-09T05:38:57.256Z,12.00
2022-12-09T05:41:26.740Z,10.07
2022-12-09T05:43:55.504Z,11.70
2022-12-09T05:46:24.298Z,10.17
2022-12-09T05:48:53.245Z,10.37
2022-12-09T05:51:28.549Z,10.00
2022-12-09T05:54:01.169Z,13.17
2022-12-09T05:56:30.047Z,14.80
2022-12-09T05:58:58.901Z,10.97
2022-12-09T06:01:29.279Z,19.00
2022-12-09T06:03:58.045Z,22.40
2022-12-09T06:06:32.406Z,10.83
2022-12-09T06:09:03.048Z,10.70
2022-12-09T06:11:33.580Z,14.90
2022-12-09T06:14:02.184Z,16.97
2022-12-09T06:16:31.254Z,14.47
2022-12-09T06:18:59.986Z,13.97
2022-12-09T06:21:28.691Z,12.90
2022-12-09T06:23:57.444Z,13.57
2022-12-09T06:26:29.864Z,17.73
2022-12-09T06:28:59.725Z,14.20
2022-12-09T06:31:30.534Z,15.50
2022-12-09T06:34:00.193Z,19.13
2022-12-09T06:36:31.306Z,13.50
2022-12-09T06:39:07.584Z,13.27
2022-12-09T06:41:38.132Z,12.93
2022-12-09T06:44:07.437Z,13.77
2022-12-09T06:46:36.340Z,12.75
2022-12-09T06:49:05.582Z,11.70
2022-12-09T06:51:34.580Z,10.90
2022-12-09T06:54:03.142Z,10.10
2022-12-09T06:56:33.338Z,10.73
2022-12-09T06:59:02.007Z,10.17
2022-12-09T07:01:30.810Z,8.37
2022-12-09T07:03:59.553Z,8.40
2022-12-09T07:06:36.231Z,9.17
2022-12-09T07:09:16.604Z,8.57
2022-12-09T07:11:48.284Z,9.90
2022-12-09T07:14:19.331Z,8.15
2022-12-09T07:16:48.980Z,8.00
2022-12-09T07:19:20.180Z,8.97
2022-12-09T07:21:50.085Z,10.33
2022-12-09T07:24:20.376Z,11.17
2022-12-09T07:26:49.544Z,9.10
2022-12-09T07:29:19.380Z,10.95
2022-12-09T07:31:48.954Z,8.50
2022-12-09T07:34:18.515Z,8.60
2022-12-09T07:36:47.431Z,9.40
2022-12-09T07:39:18.548Z,10.25
2022-12-09T07:41:49.288Z,10.40
2022-12-09T07:44:18.086Z,10.98
2022-12-09T07:46:47.278Z,13.25
2022-12-09T07:49:16.727Z,12.13
2022-12-09T07:51:45.845Z,9.60
2022-12-09T07:54:18.318Z,10.75
2022-12-09T07:56:47.074Z,11.70
2022-12-09T07:59:16.893Z,10.73
2022-12-09T08:01:46.185Z,9.50
2022-12-09T08:04:15.285Z,7.87
2022-12-09T08:06:44.537Z,12.05
2022-12-09T08:09:14.860Z,9.68
2022-12-09T08:11:43.571Z,11.50
2022-12-09T08:14:13.457Z,7.90
2022-12-09T08:16:44.614Z,9.70
2022-12-09T08:19:13.963Z,10.80
2022-12-09T08:21:43.550Z,10.13
2022-12-09T08:24:13.876Z,9.80
2022-12-09T08:26:43.234Z,11.40
2022-12-09T08:29:14.036Z,9.90
2022-12-09T08:31:44.372Z,11.20
2022-12-09T08:34:14.212Z,9.63
2022-12-09T08:36:43.419Z,10.65
2022-12-09T08:39:14.355Z,11.27
2022-12-09T08:41:44.689Z,7.63
2022-12-09T08:44:21.631Z,9.70
2022-12-09T08:46:52.300Z,9.20
2022-12-09T08:49:23.318Z,7.72
2022-12-09T08:51:53.673Z,8.37
2022-12-09T08:54:22.580Z,8.43
2022-12-09T08:56:53.082Z,6.77
2022-12-09T08:59:22.209Z,6.43
2022-12-09T09:01:51.550Z,6.13
2022-12-09T09:04:21.942Z,5.20
2022-12-09T09:06:52.608Z,6.30
2022-12-09T09:09:22.554Z,5.60
2022-12-09T09:11:51.854Z,4.33
2022-12-09T09:14:21.020Z,4.70
2022-12-09T09:16:49.945Z,4.20
2022-12-09T09:19:22.675Z,4.70
2022-12-09T09:21:51.721Z,4.10
2022-12-09T09:24:22.939Z,3.83
2022-12-09T09:26:53.222Z,4.37
2022-12-09T09:29:23.967Z,4.10
2022-12-09T09:31:55.359Z,3.87
2022-12-09T09:34:26.980Z,4.47
2022-12-09T09:36:56.982Z,3.92
2022-12-09T09:39:26.617Z,3.50
2022-12-09T09:41:56.549Z,3.53
2022-12-09T09:44:41.910Z,3.60
2022-12-09T09:47:37.766Z,3.50
2022-12-09T09:50:19.628Z,3.30
2022-12-09T09:52:48.648Z,4.38
2022-12-09T09:55:19.400Z,4.10
2022-12-09T09:57:59.566Z,3.95
2022-12-09T10:00:45.367Z,3.78
2022-12-09T10:03:26.873Z,3.40
2022-12-09T10:05:59.703Z,3.57
2022-12-09T10:08:37.876Z,3.90
2022-12-09T10:11:28.141Z,4.60
2022-12-09T10:14:07.078Z,4.70
2022-12-09T10:16:54.460Z,4.40
2022-12-09T10:19:36.985Z,4.03
2022-12-09T10:22:18.895Z,4.72
2022-12-09T10:24:59.971Z,3.60
2022-12-09T10:27:35.759Z,3.95
2022-12-09T10:30:12.105Z,4.03
2022-12-09T10:32:41.486Z,3.53
2022-12-09T10:35:16.623Z,4.03
2022-12-09T10:37:45.351Z,5.30
2022-12-09T10:40:14.431Z,4.70
2022-12-09T10:43:05.010Z,4.30
2022-12-09T10:46:07.899Z,4.22
2022-12-09T10:48:34.433Z,4.70
2022-12-09T10:51:12.434Z,4.80
2022-12-09T10:54:05.169Z,4.35
2022-12-09T10:56:36.842Z,4.93
2022-12-09T10:59:25.786Z,4.00
2022-12-09T11:01:55.704Z,4.53
2022-12-09T11:04:30.622Z,4.60
2022-12-09T11:07:20.896Z,4.43
2022-12-09T11:10:01.266Z,3.78
2022-12-09T11:12:34.811Z,3.63
2022-12-09T11:15:32.491Z,4.00
2022-12-09T11:18:06.108Z,4.68
2022-12-09T11:20:36.580Z,3.83
2022-12-09T11:23:18.239Z,4.70
2022-12-09T11:26:00.192Z,4.35
2022-12-09T11:28:39.543Z,3.60
2022-12-09T11:31:30.403Z,4.13
2022-12-09T11:34:04.840Z,4.80
2022-12-09T11:36:40.580Z,3.53
2022-12-09T11:39:31.890Z,4.53
2022-12-09T11:42:19.843Z,3.60
2022-12-09T11:45:02.141Z,3.92
2022-12-09T11:48:21.130Z,4.10
2022-12-09T11:50:33.432Z,4.38
2022-12-09T11:53:14.220Z,3.30
2022-12-09T11:55:56.487Z,3.58
2022-12-09T11:58:39.784Z,3.72
2022-12-09T12:01:21.489Z,3.43
2022-12-09T12:04:01.475Z,3.00
2022-12-09T12:06:35.128Z,3.33
2022-12-09T12:09:28.534Z,4.10
2022-12-09T12:12:23.098Z,3.72
2022-12-09T12:14:51.541Z,3.60
2022-12-09T12:17:19.973Z,3.33
2022-12-09T12:19:53.130Z,3.08
2022-12-09T12:22:39.766Z,2.95
2022-12-09T12:25:33.048Z,2.80
2022-12-09T12:28:14.244Z,3.67
2022-12-09T12:31:07.405Z,3.38
2022-12-09T12:37:00.541Z,3.20
2022-12-09T12:40:05.371Z,3.20
2022-12-09T12:43:03.011Z,2.90
2022-12-09T12:45:57.008Z,2.65
2022-12-09T12:49:01.011Z,2.97
2022-12-09T12:51:38.679Z,2.17
2022-12-09T12:54:25.990Z,2.30
2022-12-09T12:57:08.022Z,2.00
2022-12-09T12:59:56.547Z,2.28
2022-12-09T13:02:51.639Z,2.08
2022-12-09T13:05:27.273Z,2.72
2022-12-09T13:08:05.094Z,2.85
2022-12-09T13:10:48.911Z,2.40
2022-12-09T13:13:28.169Z,2.50
2022-12-09T13:16:17.381Z,2.50
2022-12-09T13:18:46.304Z,2.17
2022-12-09T13:21:15.445Z,2.38
2022-12-09T13:24:02.221Z,2.70
2022-12-09T13:27:06.596Z,2.85
2022-12-09T13:29:37.912Z,3.00
2022-12-09T13:32:29.500Z,2.70
2022-12-09T13:35:12.244Z,3.03
2022-12-09T13:37:43.636Z,2.83
2022-12-09T13:40:38.543Z,2.70
2022-12-09T13:43:28.608Z,2.97
2022-12-09T13:46:02.067Z,2.70
2022-12-09T13:48:30.662Z,2.30
2022-12-09T13:51:00.762Z,2.35
2022-12-09T13:53:35.426Z,2.33
2022-12-09T13:56:25.388Z,3.10
2022-12-09T13:59:09.112Z,2.25
2022-12-09T14:01:58.537Z,2.65
2022-12-09T14:04:33.164Z,2.92
2022-12-09T14:07:31.174Z,2.50
2022-12-09T14:10:01.178Z,2.45
2022-12-09T14:12:29.562Z,2.67
2022-12-09T14:15:02.761Z,4.10
2022-12-09T14:17:31.155Z,3.50
2022-12-09T14:20:09.668Z,2.97
2022-12-09T14:22:40.505Z,2.28
2022-12-09T14:25:27.354Z,2.30
2022-12-09T14:28:13.895Z,3.38
2022-12-09T14:31:02.039Z,2.83
2022-12-09T14:33:41.923Z,1.95
2022-12-09T14:36:32.909Z,2.67
2022-12-09T14:39:25.470Z,2.50
2022-12-09T14:41:57.950Z,3.38
2022-12-09T14:44:57.890Z,2.35
2022-12-09T14:47:28.944Z,1.90
2022-12-09T14:50:06.980Z,2.20
2022-12-09T14:52:36.546Z,2.50
2022-12-09T14:55:09.953Z,1.77
2022-12-09T14:57:45.076Z,1.90
2022-12-09T15:00:38.192Z,2.40
2022-12-09T15:03:36.920Z,1.73
2022-12-09T15:06:13.206Z,2.10
2022-12-09T15:08:42.809Z,2.47
2022-12-09T15:11:23.286Z,1.93
2022-12-09T15:13:54.701Z,1.93
2022-12-09T15:16:26.606Z,2.27
2022-12-09T15:18:56.022Z,2.80
2022-12-09T15:21:31.328Z,2.77
2022-12-09T15:24:01.040Z,2.53
2022-12-09T15:26:34.234Z,3.05
2022-12-09T15:29:05.927Z,3.17
2022-12-09T15:31:35.625Z,3.10
2022-12-09T15:34:19.353Z,3.83
2022-12-09T15:37:02.127Z,5.70
2022-12-09T15:39:40.985Z,4.18
2022-12-09T15:42:13.674Z,4.47
2022-12-09T15:45:11.630Z,2.33
2022-12-09T15:48:00.438Z,3.35
2022-12-09T15:50:34.308Z,2.80
2022-12-09T15:53:11.191Z,3.65
2022-12-09T15:55:45.525Z,3.60
2022-12-09T15:58:17.115Z,3.47
2022-12-09T16:00:49.878Z,2.03
2022-12-09T16:03:25.264Z,1.90
2022-12-09T16:06:06.090Z,2.20
2022-12-09T16:08:41.475Z,1.70
2022-12-09T16:11:11.264Z,1.70
2022-12-09T16:13:59.016Z,1.90
2022-12-09T16:16:52.773Z,1.50
2022-12-09T16:19:39.563Z,1.90
2022-12-09T16:22:20.450Z,1.60
2022-12-09T16:25:22.825Z,1.70
2022-12-09T16:27:58.870Z,1.93
2022-12-09T16:30:30.237Z,1.60
2022-12-09T16:33:00.439Z,2.10
2022-12-09T16:35:36.673Z,2.28
2022-12-09T16:38:10.011Z,8.60
2022-12-09T16:40:47.717Z,3.13
2022-12-09T16:43:19.884Z,2.33
2022-12-09T16:45:56.750Z,2.20
2022-12-09T16:48:26.965Z,2.10
2022-12-09T16:50:59.691Z,2.13
2022-12-09T16:53:40.152Z,1.60
2022-12-09T16:56:17.931Z,2.00
2022-12-09T16:58:46.380Z,1.60
2022-12-09T17:01:20.237Z,2.10
2022-12-09T17:04:11.667Z,1.63
2022-12-09T17:06:40.080Z,1.87
2022-12-09T17:09:08.448Z,1.93
2022-12-09T17:11:36.925Z,2.20
2022-12-09T17:14:06.004Z,2.00
2022-12-09T17:16:37.701Z,3.27
2022-12-09T17:19:07.824Z,1.70
2022-12-09T17:21:36.307Z,2.20
2022-12-09T17:24:04.896Z,1.70
2022-12-09T17:26:33.305Z,1.80
2022-12-09T17:29:02.237Z,2.00
2022-12-09T17:31:31.200Z,2.43
2022-12-09T17:33:59.634Z,1.90
2022-12-09T17:36:28.089Z,2.20
2022-12-09T17:38:56.476Z,1.90
2022-12-09T17:41:25.035Z,2.30
2022-12-09T17:43:53.580Z,2.20
2022-12-09T17:46:22.310Z,3.80
2022-12-09T17:48:50.725Z,5.30
2022-12-09T17:51:19.434Z,5.37
2022-12-09T17:53:48.500Z,5.33
2022-12-09T17:56:22.125Z,6.03
2022-12-09T17:58:58.179Z,5.20
2022-12-09T18:01:27.168Z,6.00
2022-12-09T18:04:06.258Z,7.53
2022-12-09T18:06:44.157Z,7.33
2022-12-09T18:09:17.989Z,7.30
2022-12-09T18:11:47.279Z,6.47
2022-12-09T18:14:17.017Z,7.30
2022-12-09T18:16:49.955Z,6.97
2022-12-09T18:19:21.463Z,7.23
2022-12-09T18:21:50.079Z,6.30
2022-12-09T18:24:19.101Z,6.77
2022-12-09T18:26:47.490Z,7.87
2022-12-09T18:29:16.461Z,8.00
2022-12-09T18:31:54.056Z,8.03
2022-12-09T18:34:27.646Z,7.20
2022-12-09T18:36:56.280Z,5.93
2022-12-09T18:39:24.701Z,7.00
2022-12-09T18:41:53.392Z,6.50
2022-12-09T18:44:21.809Z,6.60
2022-12-09T18:46:51.534Z,4.73
2022-12-09T18:49:22.641Z,4.90
2022-12-09T18:51:53.497Z,5.63
2022-12-09T18:54:28.226Z,5.00
2022-12-09T18:56:57.113Z,5.90
2022-12-09T18:59:26.306Z,5.47
2022-12-09T19:01:55.318Z,5.90
2022-12-09T19:04:26.339Z,5.63
2022-12-09T19:06:57.850Z,5.77
2022-12-09T19:09:30.883Z,5.73
2022-12-09T19:12:16.441Z,5.40
2022-12-09T19:14:49.133Z,6.27
2022-12-09T19:17:19.541Z,5.07
2022-12-09T19:19:48.209Z,5.13
2022-12-09T19:22:16.593Z,5.00
2022-12-09T19:24:45.153Z,4.73
2022-12-09T19:27:14.169Z,5.03
2022-12-09T19:29:42.608Z,4.90
2022-12-09T19:32:36.575Z,4.73
2022-12-09T19:34:59.659Z,4.60
2022-12-09T19:37:28.088Z,4.53
2022-12-09T19:39:56.484Z,5.63
2022-12-09T19:42:24.910Z,5.10
2022-12-09T19:45:01.344Z,4.43
2022-12-09T19:47:30.713Z,4.40
2022-12-09T19:49:59.164Z,5.47
2022-12-09T19:52:28.097Z,5.23
2022-12-09T19:54:56.471Z,3.70
2022-12-09T19:57:24.935Z,3.30
2022-12-09T19:59:53.322Z,2.97
2022-12-09T20:02:21.696Z,3.50
2022-12-09T20:04:51.039Z,3.20
2022-12-09T20:07:20.801Z,4.33
2022-12-09T20:09:49.519Z,3.10
2022-12-09T20:12:18.041Z,2.70
2022-12-09T20:14:46.498Z,2.90
2022-12-09T20:17:15.004Z,2.90
2022-12-09T20:19:43.431Z,2.80
2022-12-09T20:22:11.809Z,2.87
2022-12-09T20:24:40.191Z,2.80
2022-12-09T20:27:08.577Z,2.50
2022-12-09T20:29:38.143Z,2.90
2022-12-09T20:32:09.262Z,2.60
2022-12-09T20:34:37.744Z,3.00
2022-12-09T20:37:06.661Z,4.23
2022-12-09T20:39:35.182Z,3.47
2022-12-09T20:42:03.623Z,2.87
2022-12-09T20:44:33.131Z,2.57
2022-12-09T20:47:01.581Z,2.53
2022-12-09T20:49:31.022Z,2.78
2022-12-09T20:51:59.713Z,2.83
2022-12-09T20:54:28.168Z,2.17
2022-12-09T20:56:56.588Z,2.83
2022-12-09T20:59:25.965Z,2.30
2022-12-09T21:01:56.614Z,2.93
2022-12-09T21:04:25.184Z,2.50
2022-12-09T21:06:53.741Z,2.83
2022-12-09T21:09:25.540Z,2.38
2022-12-09T21:11:54.638Z,2.88
2022-12-09T21:14:25.719Z,2.83
2022-12-09T21:16:59.198Z,2.53
2022-12-09T21:19:30.790Z,2.40
2022-12-09T21:21:59.419Z,2.20
2022-12-09T21:24:27.849Z,2.30
2022-12-09T21:26:57.944Z,2.60
2022-12-09T21:29:31.654Z,2.25
2022-12-09T21:32:02.122Z,2.50
2022-12-09T21:34:30.868Z,2.55
2022-12-09T21:36:59.569Z,2.90
2022-12-09T21:39:29.059Z,3.07
2022-12-09T21:41:57.523Z,3.40
2022-12-09T21:44:26.288Z,3.13
2022-12-09T21:46:54.874Z,3.80
2022-12-09T21:49:23.461Z,3.85
2022-12-09T21:51:51.892Z,3.50
2022-12-09T21:54:20.308Z,3.35
2022-12-09T21:56:48.715Z,3.70
2022-12-09T21:59:17.132Z,4.20
2022-12-09T22:01:45.675Z,3.65
2022-12-09T22:04:17.155Z,3.10
2022-12-09T22:06:48.037Z,4.28
2022-12-09T22:09:18.384Z,3.80
2022-12-09T22:11:46.781Z,4.10
2022-12-09T22:14:15.214Z,3.78
2022-12-09T22:16:45.761Z,4.28
2022-12-09T22:19:17.968Z,4.60
2022-12-09T22:21:46.863Z,3.95
2022-12-09T22:24:16.004Z,4.82
2022-12-09T22:26:44.773Z,4.50
2022-12-09T22:29:15.484Z,6.10
2022-12-09T22:31:44.661Z,3.30
2022-12-09T22:34:15.746Z,3.50
2022-12-09T22:36:44.370Z,3.92
2022-12-09T22:39:18.818Z,4.00
2022-12-09T22:41:47.390Z,3.00
2022-12-09T22:44:18.578Z,2.65
2022-12-09T22:46:47.153Z,3.40
2022-12-09T22:49:16.436Z,3.78
2022-12-09T22:51:45.996Z,2.83
2022-12-09T22:54:14.819Z,2.95
2022-12-09T22:56:44.249Z,3.00
2022-12-09T22:59:14.415Z,2.20
2022-12-09T23:01:48.048Z,2.80
2022-12-09T23:04:19.008Z,2.30
2022-12-09T23:06:47.440Z,2.88
2022-12-09T23:09:26.126Z,2.60
2022-12-09T23:11:54.664Z,2.50
2022-12-09T23:14:23.223Z,2.67
2022-12-09T23:16:51.635Z,1.83
2022-12-09T23:19:20.489Z,2.10
2022-12-09T23:21:48.881Z,2.10
2022-12-09T23:24:24.368Z,2.50
2022-12-09T23:26:55.448Z,2.80
2022-12-09T23:29:24.715Z,2.60
2022-12-09T23:31:53.448Z,2.30
2022-12-09T23:34:22.014Z,2.35
2022-12-09T23:36:50.649Z,1.98
2022-12-09T23:39:20.120Z,2.45
2022-12-09T23:41:49.044Z,2.35
2022-12-09T23:44:19.896Z,2.90
2022-12-09T23:46:48.652Z,3.53
2022-12-09T23:49:17.938Z,3.45
2022-12-09T23:51:46.497Z,3.40
2022-12-09T23:54:17.096Z,2.88
2022-12-09T23:56:50.637Z,2.90
2022-12-09T23:59:22.111Z,2.77
